< < Back
Terminal Aerodrome Forecast


Current Version              Previous Versions:   1  2  3  4  5  6  7  8  9  

Terminal Aerodrome Forecast

482
FTAK31 PAJN 271100
TAFAGS
TAF
PAGS 271140Z 2712/2812 11006KT P6SM VCSH SCT025 BKN040 BKN100
      TEMPO 2712/2716 6SM -SHRA BKN020 OVC040
     FM271600 VRB05KT P6SM VCSH OVC040
     FM272000 15008KT 6SM -SHRA BKN025 OVC040
     FM280300 VRB06KT 6SM BR SCT025 OVC035
      AMD LTD TO CLD VIS AND WIND=



Latest METAR

037
SAUS70 KWBC 271500 RRA
MTRAGS
METAR KAGS 271453Z 25012KT 10SM SCT080 BKN090 21/13 A2969 RMK AO2 SLP051
T02110133 58002


USA.gov is the U.S. government's official web portal to all federal, state and local government web resources and services.